Westlake, OR (97493)

10:07 AM PST on February 14, 2016 (GMT -0800)
Port of suislaw | | Change Station
CLOSE
Current Station
Personal Weather Station
Location: Florence, OR
Elevation: 10 ft
Nearby Weather Stations

Elev 10 ft 43.97 °N, 124.10 °W | Updated 31 seconds ago

Rain
Rain
53.4 °F
Feels Like 53.4 °F
N
11.9
Wind Variable Wind from WSW
Gusts 15.0 mph

Today
High -- | Low -- °F
--% Chance of Precip.
Yesterday
High -- | Low -- °F
Precip. -- in
Pressure 30.40 in
Visibility 3.0 miles
Clouds Overcast 800 ft
Dew Point 53 °F
Humidity 97%
Rainfall 0.66 in
Snow Depth Not available.
7:17 AM 5:44 PM
Waxing Crescent, 44% visible
METAR KOTH 141755Z 22007KT 3SM OVC008 12/12 A3040 RMK AO1 P0001 60012 10120 20120 52027
Pressure 30.40 in
Visibility 3.0 miles
Clouds Overcast 800 ft
Dew Point 53 °F
Humidity 97%
Rainfall 0.66 in
Snow Depth Not available.
7:17 AM 5:44 PM
Waxing Crescent, 44% visible
METAR KOTH 141755Z 22007KT 3SM OVC008 12/12 A3040 RMK AO1 P0001 60012 10120 20120 52027

10-Day Weather Forecast

Almanac

Astronomy

Feb. 14, 2016 Rise Set
Actual Time
Civil Twilight
Nautical Twilight
Astronomical Twilight
Moon
Length of Visible Light
Length of Day
Tomorrow will be .
, % of the Moon is Illuminated

Today's Extremes

State Highs State Lows

Community

WunderPhotos

Upload Photos

1,892,866 photos uploaded!

WunderBlog® & News

Nearby

Air Quality

  Air Quality AQ Index Pollutant
Not available.

Snow Depth

Station Depth Elevation

Earthquake Activity

City Distance Mag. Time & Date
Minimum magnitude displayed is 2.5.

Coastal Water Temperatures

Place Temperature

Stations

Nearby Weather Stations

Station Location Temp. Windchill Dew Point Humidity Wind Precip. Elev Updated Type
                   

Watches & Warnings

There are currently no watches in effect.